createdAt,value
2023-05-05T00:02:45.297Z,79.77
2023-05-05T00:05:55.487Z,79.94
2023-05-05T00:08:58.918Z,80.04
2023-05-05T00:12:02.287Z,80.94
2023-05-05T00:15:05.970Z,81.30
2023-05-05T00:18:09.698Z,80.39
2023-05-05T00:21:13.625Z,80.93
2023-05-05T00:24:17.027Z,80.68
2023-05-05T00:27:20.215Z,80.50
2023-05-05T00:30:23.607Z,80.86
2023-05-05T00:33:27.490Z,81.47
2023-05-05T00:36:30.671Z,81.31
2023-05-05T00:39:34.553Z,81.27
2023-05-05T00:42:51.026Z,81.57
2023-05-05T00:46:01.371Z,81.88
2023-05-05T00:49:05.975Z,81.52
2023-05-05T00:52:10.318Z,81.98
2023-05-05T00:55:14.042Z,81.69
2023-05-05T00:58:18.452Z,81.73
2023-05-05T01:01:22.637Z,81.93
2023-05-05T01:04:29.016Z,82.60
2023-05-05T01:07:40.799Z,83.00
2023-05-05T01:10:50.685Z,82.68
2023-05-05T01:14:13.803Z,82.53
2023-05-05T01:17:19.536Z,83.10
2023-05-05T01:20:29.571Z,83.25
2023-05-05T01:24:13.795Z,83.06
2023-05-05T01:27:19.607Z,82.38
2023-05-05T01:30:41.181Z,82.59
2023-05-05T01:33:48.402Z,83.36
2023-05-05T01:36:58.563Z,83.32
2023-05-05T01:40:07.024Z,82.89
2023-05-05T01:43:13.751Z,83.26
2023-05-05T01:46:19.421Z,83.67
2023-05-05T01:49:23.791Z,83.12
2023-05-05T01:52:28.211Z,83.56
2023-05-05T01:55:33.569Z,83.07
2023-05-05T01:58:38.205Z,83.38
2023-05-05T02:01:44.879Z,82.91
2023-05-05T02:04:51.981Z,83.02
2023-05-05T02:07:58.231Z,83.91
2023-05-05T02:11:01.644Z,84.33
2023-05-05T02:14:07.442Z,84.05
2023-05-05T02:17:12.336Z,83.54
2023-05-05T02:20:17.229Z,83.96
2023-05-05T02:23:20.545Z,83.57
2023-05-05T02:26:24.956Z,83.62
2023-05-05T02:29:34.205Z,83.12
2023-05-05T02:32:45.391Z,84.28
2023-05-05T02:35:52.136Z,84.10
2023-05-05T02:39:03.536Z,84.31
2023-05-05T02:42:15.828Z,84.61
2023-05-05T02:45:22.406Z,84.12
2023-05-05T02:48:26.866Z,84.01
2023-05-05T02:51:31.115Z,84.77
2023-05-05T02:54:38.072Z,85.62
2023-05-05T02:58:02.490Z,85.78
2023-05-05T03:01:29.393Z,85.74
2023-05-05T03:04:39.971Z,86.43
2023-05-05T03:07:54.002Z,85.69
2023-05-05T03:11:05.188Z,85.13
2023-05-05T03:14:13.405Z,84.51
2023-05-05T03:17:19.883Z,84.37
2023-05-05T03:20:23.599Z,84.65
2023-05-05T03:23:27.284Z,85.58
2023-05-05T03:26:34.364Z,85.71
2023-05-05T03:29:37.518Z,85.87
2023-05-05T03:32:44.840Z,85.74
2023-05-05T03:35:47.898Z,85.63
2023-05-05T03:38:53.995Z,85.66
2023-05-05T03:42:36.797Z,85.52
2023-05-05T03:45:40.179Z,85.03
2023-05-05T03:48:43.828Z,84.76
2023-05-05T03:51:47.836Z,85.49
2023-05-05T03:54:51.507Z,85.43
2023-05-05T03:57:54.705Z,85.08
2023-05-05T04:00:57.770Z,85.63
2023-05-05T04:04:02.514Z,84.47
2023-05-05T04:07:06.190Z,84.08
2023-05-05T04:10:10.167Z,83.56
2023-05-05T04:13:13.298Z,83.45
2023-05-05T04:16:16.855Z,83.56
2023-05-05T04:19:20.244Z,83.53
2023-05-05T04:22:23.478Z,82.95
2023-05-05T04:25:27.009Z,83.24
2023-05-05T04:28:30.352Z,81.70
2023-05-05T04:31:33.639Z,82.23
2023-05-05T04:34:37.437Z,81.98
2023-05-05T04:37:41.319Z,81.48
2023-05-05T04:40:50.806Z,81.21
2023-05-05T04:43:55.690Z,80.42
2023-05-05T04:47:00.622Z,80.03
2023-05-05T04:50:04.312Z,78.80
2023-05-05T04:53:07.868Z,77.60
2023-05-05T04:56:11.240Z,79.03
2023-05-05T04:59:15.515Z,78.29
2023-05-05T05:02:18.897Z,77.05
2023-05-05T05:05:22.172Z,75.78
2023-05-05T05:08:25.442Z,74.58
2023-05-05T05:11:28.651Z,75.35
2023-05-05T05:14:39.494Z,73.85
2023-05-05T05:17:42.824Z,72.26
2023-05-05T05:20:46.512Z,71.59
2023-05-05T05:23:50.399Z,71.11
2023-05-05T05:26:53.573Z,70.11
2023-05-05T05:29:57.448Z,68.95
2023-05-05T05:33:02.474Z,67.98
2023-05-05T05:36:06.293Z,68.26
2023-05-05T05:39:09.433Z,66.91
2023-05-05T05:42:12.906Z,65.40
2023-05-05T05:45:16.875Z,63.91
2023-05-05T05:48:22.374Z,63.39
2023-05-05T05:51:26.460Z,63.32
2023-05-05T05:54:30.158Z,62.27
2023-05-05T05:57:33.440Z,60.15
2023-05-05T06:00:40.103Z,60.23
2023-05-05T06:03:45.861Z,59.52
2023-05-05T06:06:49.360Z,57.79
2023-05-05T06:09:57.395Z,56.57
2023-05-05T06:13:00.915Z,54.95
2023-05-05T06:16:06.905Z,55.71
2023-05-05T06:19:10.842Z,55.45
2023-05-05T06:22:14.610Z,55.87
2023-05-05T06:25:18.074Z,56.86
2023-05-05T06:28:22.029Z,56.32
2023-05-05T06:31:25.312Z,56.16
2023-05-05T06:34:28.976Z,56.03
2023-05-05T06:37:32.175Z,55.80
2023-05-05T06:40:36.048Z,55.99
2023-05-05T06:43:39.885Z,55.99
2023-05-05T06:46:49.133Z,55.70
2023-05-05T06:49:52.493Z,56.45
2023-05-05T06:52:56.926Z,56.45
2023-05-05T06:56:00.388Z,53.59
2023-05-05T06:59:03.584Z,56.55
2023-05-05T07:02:07.112Z,56.89
2023-05-05T07:05:10.705Z,56.07
2023-05-05T07:08:13.833Z,55.32
2023-05-05T07:11:17.298Z,55.30
2023-05-05T07:14:22.099Z,55.59
2023-05-05T07:17:27.653Z,56.04
2023-05-05T07:20:30.997Z,59.64
2023-05-05T07:23:34.754Z,58.09
2023-05-05T07:26:38.592Z,54.85
2023-05-05T07:29:41.669Z,55.44
2023-05-05T07:32:47.055Z,57.49
2023-05-05T07:35:50.227Z,58.70
2023-05-05T07:38:53.660Z,56.73
2023-05-05T07:41:57.447Z,55.18
2023-05-05T07:45:00.858Z,56.95
2023-05-05T07:48:04.163Z,58.06
2023-05-05T07:51:07.222Z,57.38
2023-05-05T07:54:12.341Z,56.38
2023-05-05T07:57:15.733Z,56.78
2023-05-05T08:00:19.709Z,53.56
2023-05-05T08:03:24.905Z,56.76
2023-05-05T08:06:29.398Z,58.02
2023-05-05T08:09:32.534Z,53.71
2023-05-05T08:12:36.401Z,54.19
2023-05-05T08:15:39.747Z,58.17
2023-05-05T08:18:42.878Z,55.00
2023-05-05T08:21:47.615Z,52.97
2023-05-05T08:24:51.990Z,51.31
2023-05-05T08:27:55.138Z,55.35
2023-05-05T08:31:07.146Z,51.56
2023-05-05T08:34:13.910Z,52.44
2023-05-05T08:37:19.064Z,53.07
2023-05-05T08:40:29.459Z,53.75
2023-05-05T08:43:35.956Z,52.24
2023-05-05T08:46:39.326Z,53.98
2023-05-05T08:49:46.988Z,51.02
2023-05-05T08:52:57.561Z,51.61
2023-05-05T08:56:03.033Z,50.03
2023-05-05T08:59:07.034Z,52.81
2023-05-05T09:02:11.228Z,51.97
2023-05-05T09:05:15.369Z,53.83
2023-05-05T09:08:45.376Z,51.81
2023-05-05T09:11:48.769Z,53.54
2023-05-05T09:14:52.197Z,54.64
2023-05-05T09:17:58.476Z,52.31
2023-05-05T09:21:27.843Z,53.92
2023-05-05T09:24:32.002Z,54.70
2023-05-05T09:27:40.855Z,54.01
2023-05-05T09:30:47.602Z,51.78
2023-05-05T09:33:51.626Z,47.79
2023-05-05T09:36:54.966Z,47.83
2023-05-05T09:40:01.219Z,46.45
2023-05-05T09:43:04.529Z,47.13
2023-05-05T09:46:08.524Z,49.28
2023-05-05T09:49:19.774Z,43.82
2023-05-05T09:52:23.389Z,42.55
2023-05-05T09:55:26.736Z,44.17
2023-05-05T09:58:31.633Z,44.08
2023-05-05T10:01:35.442Z,47.57
2023-05-05T10:04:39.639Z,45.45
2023-05-05T10:07:47.959Z,42.41
2023-05-05T10:11:00.703Z,41.87
2023-05-05T10:14:06.810Z,43.90
2023-05-05T10:17:11.038Z,42.14
2023-05-05T10:20:16.030Z,42.89
2023-05-05T10:23:21.602Z,41.86
2023-05-05T10:26:26.868Z,40.09
2023-05-05T10:29:48.736Z,38.58
2023-05-05T10:33:07.883Z,38.10
2023-05-05T10:36:16.970Z,38.15
2023-05-05T10:39:21.330Z,38.18
2023-05-05T10:42:25.170Z,35.91
2023-05-05T10:45:28.851Z,38.55
2023-05-05T10:48:58.005Z,36.82
2023-05-05T10:52:19.814Z,36.32
2023-05-05T10:55:36.070Z,32.43
2023-05-05T10:58:58.200Z,31.09
2023-05-05T11:02:25.032Z,30.57
2023-05-05T11:05:28.430Z,30.59
2023-05-05T11:08:42.744Z,33.18
2023-05-05T11:12:05.696Z,37.35
2023-05-05T11:15:26.906Z,33.67
2023-05-05T11:18:35.882Z,34.22
2023-05-05T11:22:02.228Z,36.08
2023-05-05T11:25:41.047Z,35.96
2023-05-05T11:28:57.725Z,36.50
2023-05-05T11:32:16.434Z,33.34
2023-05-05T11:35:20.108Z,34.10
2023-05-05T11:39:13.353Z,35.44
2023-05-05T11:42:24.750Z,35.46
2023-05-05T11:45:28.063Z,36.53
2023-05-05T11:48:31.684Z,37.63
2023-05-05T11:51:35.225Z,37.68
2023-05-05T11:54:41.820Z,36.78
2023-05-05T11:57:45.128Z,35.52
2023-05-05T12:00:48.514Z,37.05
2023-05-05T12:03:52.011Z,35.44
2023-05-05T12:06:55.812Z,36.87
2023-05-05T12:10:00.090Z,35.27
2023-05-05T12:13:21.314Z,35.79
2023-05-05T12:16:24.522Z,36.20
2023-05-05T12:19:33.434Z,35.95
2023-05-05T12:22:36.570Z,35.71
2023-05-05T12:25:40.574Z,37.72
2023-05-05T12:28:48.282Z,37.19
2023-05-05T12:31:51.896Z,34.98
2023-05-05T12:34:57.756Z,33.59
2023-05-05T12:38:00.981Z,33.84
2023-05-05T12:41:04.028Z,32.51
2023-05-05T12:44:07.199Z,34.65
2023-05-05T12:47:12.037Z,32.08
2023-05-05T12:50:15.245Z,33.20
2023-05-05T12:53:25.718Z,33.23
2023-05-05T12:56:34.308Z,31.98
2023-05-05T12:59:37.889Z,36.42
2023-05-05T13:02:41.462Z,36.30
2023-05-05T13:05:45.063Z,35.97
2023-05-05T13:08:48.517Z,35.71
2023-05-05T13:11:52.689Z,34.80
2023-05-05T13:14:55.979Z,36.38
2023-05-05T13:18:01.353Z,36.09
2023-05-05T13:21:05.217Z,37.46
2023-05-05T13:24:25.288Z,37.48
2023-05-05T13:27:32.360Z,37.64
2023-05-05T13:30:35.429Z,37.62
2023-05-05T13:33:38.589Z,38.10
2023-05-05T13:36:42.072Z,38.23
2023-05-05T13:39:45.320Z,38.44
2023-05-05T13:42:48.706Z,39.34
2023-05-05T13:45:55.969Z,41.34
2023-05-05T13:49:03.660Z,37.33
2023-05-05T13:52:06.739Z,38.69
2023-05-05T13:55:10.218Z,39.00
2023-05-05T13:58:13.551Z,37.80
2023-05-05T14:01:16.486Z,36.51
2023-05-05T14:04:19.607Z,38.42
2023-05-05T14:07:22.994Z,37.39
2023-05-05T14:10:29.881Z,38.92
2023-05-05T14:13:32.873Z,38.85
2023-05-05T14:16:36.397Z,39.14
2023-05-05T14:19:39.439Z,38.32
2023-05-05T14:22:42.694Z,38.54
2023-05-05T14:25:45.565Z,37.20
2023-05-05T14:28:49.851Z,38.06
2023-05-05T14:31:53.662Z,38.79
2023-05-05T14:34:57.263Z,40.03
2023-05-05T14:38:00.462Z,39.01
2023-05-05T14:41:03.883Z,40.26
2023-05-05T14:44:07.186Z,37.09
2023-05-05T14:47:10.249Z,38.67
2023-05-05T14:50:14.348Z,37.56
2023-05-05T14:53:19.257Z,39.77
2023-05-05T14:56:22.917Z,37.93
2023-05-05T14:59:26.483Z,39.43
2023-05-05T15:02:30.009Z,38.73
2023-05-05T15:05:35.754Z,38.30
2023-05-05T15:08:41.857Z,39.57
2023-05-05T15:11:45.681Z,39.55
2023-05-05T15:14:49.341Z,38.34
2023-05-05T15:17:52.609Z,39.38
2023-05-05T15:20:55.704Z,36.59
2023-05-05T15:23:59.204Z,37.63
2023-05-05T15:27:03.073Z,35.93
2023-05-05T15:30:07.290Z,34.88
2023-05-05T15:33:10.601Z,35.09
2023-05-05T15:36:13.660Z,36.01
2023-05-05T15:39:17.545Z,36.05
2023-05-05T15:42:20.885Z,36.79
2023-05-05T15:45:23.725Z,37.23
2023-05-05T15:48:27.043Z,36.86
2023-05-05T15:51:30.087Z,38.61
2023-05-05T15:54:33.210Z,36.80
2023-05-05T15:57:36.231Z,37.55
2023-05-05T16:00:41.747Z,35.15
2023-05-05T16:03:45.737Z,35.30
2023-05-05T16:06:48.952Z,36.39
2023-05-05T16:09:52.622Z,35.63
2023-05-05T16:12:56.586Z,36.92
2023-05-05T16:15:59.835Z,36.57
2023-05-05T16:19:02.932Z,37.86
2023-05-05T16:22:06.532Z,37.86
2023-05-05T16:25:10.327Z,38.50
2023-05-05T16:28:13.866Z,39.05
2023-05-05T16:31:16.963Z,39.71
2023-05-05T16:34:20.267Z,39.80
2023-05-05T16:37:23.192Z,41.38
2023-05-05T16:40:26.205Z,41.96
2023-05-05T16:43:29.293Z,42.32
2023-05-05T16:46:35.589Z,42.63
2023-05-05T16:49:38.702Z,43.19
2023-05-05T16:52:41.923Z,43.46
2023-05-05T16:55:45.047Z,45.19
2023-05-05T16:58:47.917Z,45.26
2023-05-05T17:01:50.886Z,47.62
2023-05-05T17:04:53.935Z,48.37
2023-05-05T17:07:56.849Z,47.83
2023-05-05T17:10:59.779Z,46.77
2023-05-05T17:14:02.956Z,47.69
2023-05-05T17:17:07.168Z,48.97
2023-05-05T17:20:11.382Z,49.56
2023-05-05T17:23:14.450Z,49.93
2023-05-05T17:26:17.413Z,49.60
2023-05-05T17:29:21.751Z,49.58
2023-05-05T17:32:25.269Z,49.12
2023-05-05T17:35:28.340Z,49.33
2023-05-05T17:38:31.284Z,50.57
2023-05-05T17:41:34.378Z,50.77
2023-05-05T17:44:37.396Z,52.10
2023-05-05T17:47:40.380Z,51.30
2023-05-05T17:50:43.620Z,52.68
2023-05-05T17:53:46.679Z,53.37
2023-05-05T17:56:49.926Z,54.03
2023-05-05T17:59:53.823Z,54.51
2023-05-05T18:02:57.043Z,54.60
2023-05-05T18:06:00.149Z,54.90
2023-05-05T18:09:03.455Z,54.71
2023-05-05T18:12:07.936Z,55.55
2023-05-05T18:15:11.651Z,55.66
2023-05-05T18:18:14.988Z,56.24
2023-05-05T18:21:17.949Z,55.92
2023-05-05T18:24:21.359Z,56.75
2023-05-05T18:27:26.615Z,57.02
2023-05-05T18:30:29.890Z,57.00
2023-05-05T18:33:33.038Z,57.24
2023-05-05T18:36:36.340Z,57.72
2023-05-05T18:39:40.169Z,57.65
2023-05-05T18:42:44.190Z,58.11
2023-05-05T18:45:47.163Z,58.99
2023-05-05T18:48:50.712Z,58.97
2023-05-05T18:51:54.021Z,59.24
2023-05-05T18:54:57.179Z,59.84
2023-05-05T18:58:00.454Z,60.21
2023-05-05T19:01:03.737Z,60.38
2023-05-05T19:04:12.838Z,60.62
2023-05-05T19:07:33.743Z,61.23
2023-05-05T19:10:38.309Z,61.94
2023-05-05T19:13:41.775Z,61.74
2023-05-05T19:16:45.433Z,61.73
2023-05-05T19:19:49.055Z,62.45
2023-05-05T19:22:52.646Z,62.90
2023-05-05T19:25:56.121Z,63.16
2023-05-05T19:28:59.588Z,63.80
2023-05-05T19:32:02.770Z,63.81
2023-05-05T19:35:06.883Z,64.16
2023-05-05T19:38:10.469Z,64.60
2023-05-05T19:41:13.854Z,64.84
2023-05-05T19:44:17.034Z,64.75
2023-05-05T19:47:20.746Z,65.30
2023-05-05T19:50:24.466Z,66.65
2023-05-05T19:53:27.864Z,66.10
2023-05-05T19:56:31.088Z,66.24
2023-05-05T19:59:34.114Z,66.36
2023-05-05T20:02:39.922Z,66.39
2023-05-05T20:05:42.935Z,67.48
2023-05-05T20:08:46.320Z,66.56
2023-05-05T20:11:49.334Z,68.15
2023-05-05T20:14:52.290Z,66.68
2023-05-05T20:17:55.408Z,66.36
2023-05-05T20:20:59.133Z,66.64
2023-05-05T20:24:02.343Z,66.64
2023-05-05T20:27:05.781Z,66.72
2023-05-05T20:30:10.292Z,66.69
2023-05-05T20:33:13.986Z,66.94
2023-05-05T20:36:18.077Z,66.50
2023-05-05T20:39:21.367Z,66.60
2023-05-05T20:42:25.682Z,66.64
2023-05-05T20:45:31.797Z,66.81
2023-05-05T20:48:35.364Z,67.30
2023-05-05T20:51:39.020Z,67.22
2023-05-05T20:54:42.218Z,68.12
2023-05-05T20:57:45.249Z,67.75
2023-05-05T21:00:48.682Z,67.66
2023-05-05T21:03:51.993Z,67.92
2023-05-05T21:06:55.405Z,67.97
2023-05-05T21:09:58.273Z,68.21
2023-05-05T21:13:02.634Z,68.41
2023-05-05T21:16:05.940Z,69.23
2023-05-05T21:19:09.458Z,68.20
2023-05-05T21:22:12.848Z,68.59
2023-05-05T21:25:21.392Z,69.05
2023-05-05T21:28:24.520Z,68.86
2023-05-05T21:31:27.812Z,69.14
2023-05-05T21:34:30.829Z,69.14
2023-05-05T21:37:34.430Z,69.30
2023-05-05T21:40:37.643Z,69.94
2023-05-05T21:43:40.556Z,69.22
2023-05-05T21:46:43.896Z,69.87
2023-05-05T21:49:47.024Z,69.64
2023-05-05T21:52:50.275Z,69.47
2023-05-05T21:55:53.333Z,69.49
2023-05-05T21:58:57.032Z,70.67
2023-05-05T22:02:00.328Z,70.52
2023-05-05T22:05:03.402Z,70.38
2023-05-05T22:08:06.531Z,70.65
2023-05-05T22:11:09.774Z,70.94
2023-05-05T22:14:12.761Z,71.86
2023-05-05T22:17:16.144Z,71.74
2023-05-05T22:20:19.621Z,71.17
2023-05-05T22:23:22.981Z,71.35
2023-05-05T22:26:26.370Z,71.87
2023-05-05T22:29:29.568Z,71.36
2023-05-05T22:32:32.718Z,71.82
2023-05-05T22:35:37.507Z,71.78
2023-05-05T22:38:40.865Z,72.04
2023-05-05T22:41:44.760Z,71.43
2023-05-05T22:44:47.836Z,71.36
2023-05-05T22:47:51.182Z,71.82
2023-05-05T22:50:54.579Z,71.58
2023-05-05T22:53:57.592Z,71.58
2023-05-05T22:57:00.880Z,71.84
2023-05-05T23:00:05.500Z,72.21
2023-05-05T23:03:09.463Z,72.67
2023-05-05T23:06:12.785Z,72.50
2023-05-05T23:09:16.207Z,72.95
2023-05-05T23:12:20.176Z,73.13
2023-05-05T23:15:24.057Z,73.82
2023-05-05T23:18:27.156Z,73.63
2023-05-05T23:21:32.083Z,73.63
2023-05-05T23:24:37.340Z,73.61
2023-05-05T23:27:41.417Z,73.74
2023-05-05T23:30:44.609Z,73.73
2023-05-05T23:33:47.802Z,73.94
2023-05-05T23:36:51.854Z,73.84
2023-05-05T23:39:55.077Z,74.46
2023-05-05T23:42:58.760Z,74.10
2023-05-05T23:46:01.723Z,74.46
2023-05-05T23:49:04.986Z,74.52
2023-05-05T23:52:08.116Z,74.04
2023-05-05T23:55:11.776Z,73.85
2023-05-05T23:58:15.057Z,73.48
